Time;durP1;ratioP1;P1;durP2;ratioP2;P2;SDS_P1;SDS_P2;PMS_P1;PMS_P2;Temp;Humidity;BMP_temperature;BMP_pressure;BME280_temperature;BME280_humidity;BME280_pressure;Samples;Min_cycle;Max_cycle;Signal;HPM_P1;HPM_P2
2023/07/16 00:01:06;;;;;;;6.30;3.10;;;17.50;99.90;;;;;;6069687;23;20022;-70
2023/07/16 00:03:32;;;;;;;7.68;3.13;;;17.50;99.90;;;;;;6095880;23;20022;-70
2023/07/16 00:05:58;;;;;;;5.10;3.00;;;17.50;99.90;;;;;;6093859;23;20027;-71
2023/07/16 00:08:24;;;;;;;6.47;3.35;;;17.50;99.90;;;;;;6069087;23;20022;-71
2023/07/16 00:10:49;;;;;;;6.85;3.33;;;17.40;99.90;;;;;;6096689;23;20106;-70
2023/07/16 00:13:15;;;;;;;8.57;3.42;;;17.40;99.90;;;;;;6045678;23;20058;-70
2023/07/16 00:15:41;;;;;;;5.32;3.38;;;17.40;99.90;;;;;;6046343;23;20092;-70
2023/07/16 00:18:06;;;;;;;8.68;3.80;;;17.30;99.90;;;;;;6046293;23;20516;-70
2023/07/16 00:20:32;;;;;;;7.63;3.40;;;17.30;99.90;;;;;;6093221;23;20022;-71
2023/07/16 00:22:58;;;;;;;9.73;3.67;;;17.30;99.90;;;;;;6094437;23;20033;-71
2023/07/16 00:25:24;;;;;;;5.38;3.55;;;17.30;99.90;;;;;;6068618;23;20596;-70
2023/07/16 00:27:49;;;;;;;5.38;3.30;;;17.30;99.90;;;;;;6095526;23;20131;-71
2023/07/16 00:30:15;;;;;;;7.40;3.65;;;17.30;99.90;;;;;;6070859;23;20014;-71
2023/07/16 00:32:41;;;;;;;6.03;3.58;;;17.30;99.90;;;;;;6072177;23;20057;-71
2023/07/16 00:35:07;;;;;;;8.48;3.92;;;17.20;99.90;;;;;;6094530;23;20153;-71
2023/07/16 00:37:34;;;;;;;6.18;3.40;;;17.20;99.90;;;;;;6097449;23;20120;-71
2023/07/16 00:40:00;;;;;;;7.03;3.95;;;17.20;99.90;;;;;;6072001;23;20102;-71
2023/07/16 00:42:26;;;;;;;6.80;3.30;;;17.20;99.90;;;;;;6094903;23;20023;-71
2023/07/16 00:44:51;;;;;;;8.68;3.60;;;17.20;99.90;;;;;;6072474;23;20018;-71
2023/07/16 00:47:17;;;;;;;8.32;3.67;;;17.20;99.90;;;;;;6094848;23;20050;-71
2023/07/16 00:49:43;;;;;;;5.93;3.40;;;17.20;99.90;;;;;;6070768;23;20026;-70
2023/07/16 00:52:14;;;;;;;7.68;3.47;;;17.20;99.90;;;;;;6047287;23;20022;-71
2023/07/16 00:54:40;;;;;;;7.37;3.27;;;17.20;99.90;;;;;;6095106;23;20063;-71
2023/07/16 00:57:05;;;;;;;8.85;3.85;;;17.20;99.90;;;;;;6094991;23;20026;-70
2023/07/16 00:59:31;;;;;;;7.53;3.53;;;17.20;99.90;;;;;;6095783;23;20057;-71
2023/07/16 01:01:57;;;;;;;7.50;3.60;;;17.10;99.90;;;;;;6095337;23;20074;-71
2023/07/16 01:04:22;;;;;;;7.97;3.50;;;17.10;99.90;;;;;;6094395;23;20068;-71
2023/07/16 01:06:52;;;;;;;7.18;3.70;;;17.10;99.90;;;;;;6023331;23;20026;-71
2023/07/16 01:09:20;;;;;;;6.78;3.75;;;17.10;99.90;;;;;;6094484;23;20097;-71
2023/07/16 01:11:47;;;;;;;7.43;3.50;;;17.00;99.90;;;;;;6070822;23;20026;-71
2023/07/16 01:14:13;;;;;;;6.75;3.10;;;17.00;99.90;;;;;;6095223;23;20019;-71
2023/07/16 01:16:41;;;;;;;7.15;3.97;;;16.90;99.90;;;;;;6093652;23;20018;-71
2023/07/16 01:19:07;;;;;;;5.22;3.15;;;16.90;99.90;;;;;;6072068;23;20022;-71
2023/07/16 01:21:51;;;;;;;6.95;3.13;;;16.90;99.90;;;;;;6093703;23;20158;-71
2023/07/16 01:24:38;;;;;;;6.13;3.22;;;16.90;99.90;;;;;;6095621;23;20382;-70
2023/07/16 01:27:31;;;;;;;7.30;3.22;;;16.80;99.90;;;;;;6097174;23;20032;-71
2023/07/16 01:30:11;;;;;;;6.88;3.72;;;16.80;99.90;;;;;;6093799;23;20018;-71
2023/07/16 01:32:37;;;;;;;6.80;3.40;;;16.80;99.90;;;;;;6097284;23;20018;-71
2023/07/16 01:35:05;;;;;;;6.15;3.30;;;16.80;99.90;;;;;;6096175;23;20026;-69
2023/07/16 01:37:32;;;;;;;8.30;3.42;;;16.80;99.90;;;;;;6096160;23;20019;-70
2023/07/16 01:39:58;;;;;;;10.18;3.85;;;16.70;99.90;;;;;;6097159;23;20014;-70
2023/07/16 01:42:23;;;;;;;10.40;3.97;;;16.70;99.90;;;;;;6093113;23;20504;-70
2023/07/16 01:44:49;;;;;;;7.28;3.47;;;16.70;99.90;;;;;;6047083;23;20027;-70
2023/07/16 01:48:00;;;;;;;6.28;3.55;;;16.70;99.90;;;;;;6070026;23;20052;-70
2023/07/16 01:50:25;;;;;;;9.60;3.75;;;16.70;99.90;;;;;;6096109;23;20025;-70
2023/07/16 01:52:51;;;;;;;4.55;3.40;;;16.70;99.90;;;;;;6046882;23;20019;-70
2023/07/16 01:55:17;;;;;;;5.38;3.70;;;16.70;99.90;;;;;;6045037;23;20018;-69
2023/07/16 01:57:42;;;;;;;7.03;3.60;;;16.70;99.90;;;;;;6095031;23;20045;-69
2023/07/16 02:00:09;;;;;;;8.80;3.60;;;16.70;99.90;;;;;;6093109;23;20026;-70
2023/07/16 02:02:34;;;;;;;8.57;4.00;;;16.70;99.90;;;;;;6071156;23;20185;-69
2023/07/16 02:05:00;;;;;;;7.45;3.78;;;16.70;99.90;;;;;;6070323;23;20070;-69
2023/07/16 02:07:26;;;;;;;8.23;3.85;;;16.70;99.90;;;;;;6093901;23;20141;-69
2023/07/16 02:09:51;;;;;;;7.03;3.92;;;16.70;99.90;;;;;;6046706;23;20052;-69
2023/07/16 02:12:17;;;;;;;8.60;4.45;;;16.70;99.90;;;;;;6095243;23;20042;-69
2023/07/16 02:14:43;;;;;;;8.38;4.10;;;16.70;99.90;;;;;;6094624;23;20022;-69
2023/07/16 02:17:08;;;;;;;8.85;4.28;;;16.70;99.90;;;;;;6069339;23;20086;-69
2023/07/16 02:19:34;;;;;;;6.63;4.03;;;16.70;99.90;;;;;;6095332;23;20026;-70
2023/07/16 02:22:00;;;;;;;6.05;3.30;;;16.70;99.90;;;;;;6093738;23;20623;-70
2023/07/16 02:24:25;;;;;;;7.68;4.50;;;16.80;99.90;;;;;;6095414;23;20033;-70
2023/07/16 02:26:51;;;;;;;8.77;4.60;;;16.80;99.90;;;;;;6095909;23;20058;-70
2023/07/16 02:29:17;;;;;;;10.00;4.57;;;16.90;99.90;;;;;;6092674;23;20053;-70
2023/07/16 02:31:45;;;;;;;9.75;4.50;;;16.80;99.90;;;;;;6070599;23;20018;-71
2023/07/16 02:34:12;;;;;;;10.13;4.10;;;16.90;99.90;;;;;;6046004;23;20065;-71
2023/07/16 02:36:37;;;;;;;10.23;5.50;;;16.90;99.90;;;;;;6051818;23;20018;-70
2023/07/16 02:39:03;;;;;;;8.43;4.28;;;16.90;99.90;;;;;;6050469;23;20551;-70
2023/07/16 02:41:29;;;;;;;10.93;4.70;;;16.90;99.90;;;;;;6075698;23;20530;-71
2023/07/16 02:44:04;;;;;;;10.35;4.55;;;16.90;99.90;;;;;;6124793;23;20049;-71
2023/07/16 02:46:29;;;;;;;9.55;4.53;;;16.80;99.90;;;;;;6124840;23;20030;-71
2023/07/16 02:48:55;;;;;;;8.23;4.53;;;16.80;99.90;;;;;;6125574;23;20040;-71
2023/07/16 02:51:21;;;;;;;7.88;4.90;;;16.70;99.90;;;;;;6098008;23;20022;-71
2023/07/16 02:53:47;;;;;;;10.25;4.50;;;16.70;99.90;;;;;;6076090;23;20025;-71
2023/07/16 02:56:12;;;;;;;9.02;4.35;;;16.70;99.90;;;;;;6098366;23;20029;-71
2023/07/16 02:58:38;;;;;;;9.07;4.70;;;16.60;99.90;;;;;;6074981;23;20033;-71
2023/07/16 03:01:04;;;;;;;9.20;4.25;;;16.60;99.90;;;;;;6074829;23;20106;-71
2023/07/16 03:03:29;;;;;;;9.43;4.40;;;16.50;99.90;;;;;;6100016;23;20053;-71
2023/07/16 03:05:55;;;;;;;7.80;3.97;;;16.50;99.90;;;;;;6076725;23;20026;-71
2023/07/16 03:08:22;;;;;;;9.55;4.30;;;16.50;99.90;;;;;;6099489;23;20036;-70
2023/07/16 03:10:48;;;;;;;10.60;4.63;;;16.50;99.90;;;;;;6127315;23;20025;-70
2023/07/16 03:13:13;;;;;;;9.68;4.05;;;16.50;99.90;;;;;;6098773;23;20025;-71
2023/07/16 03:15:39;;;;;;;10.23;4.45;;;16.40;99.90;;;;;;6052736;23;20054;-71
2023/07/16 03:18:05;;;;;;;8.80;4.60;;;16.40;99.90;;;;;;6029413;23;20029;-70
2023/07/16 03:20:30;;;;;;;9.00;4.63;;;16.40;99.90;;;;;;6099402;23;20018;-71
2023/07/16 03:22:56;;;;;;;10.48;4.68;;;16.40;99.90;;;;;;6076611;23;20017;-71
2023/07/16 03:25:22;;;;;;;7.90;4.68;;;16.40;99.90;;;;;;6075900;23;20014;-71
2023/07/16 03:27:47;;;;;;;8.95;4.93;;;16.40;99.90;;;;;;6077501;23;20030;-71
2023/07/16 03:30:13;;;;;;;8.70;4.60;;;16.40;99.90;;;;;;6098386;23;20018;-71
2023/07/16 03:32:39;;;;;;;12.35;4.93;;;16.40;99.90;;;;;;6053817;23;20104;-71
2023/07/16 03:35:05;;;;;;;11.13;4.88;;;16.40;99.90;;;;;;6095653;23;20102;-71
2023/07/16 03:37:31;;;;;;;8.98;4.47;;;16.40;99.90;;;;;;6094146;23;20048;-71
2023/07/16 03:39:56;;;;;;;8.30;4.63;;;16.40;99.90;;;;;;6096593;23;20026;-70
2023/07/16 03:42:22;;;;;;;6.32;4.60;;;16.40;99.90;;;;;;6095116;23;20018;-71
2023/07/16 03:44:48;;;;;;;9.10;4.60;;;16.40;99.90;;;;;;6049203;23;20054;-71
2023/07/16 03:47:14;;;;;;;11.73;4.90;;;16.40;99.90;;;;;;6097273;23;20022;-71
2023/07/16 03:49:39;;;;;;;7.53;4.53;;;16.40;99.90;;;;;;6096791;23;20489;-71
2023/07/16 03:52:06;;;;;;;9.13;4.45;;;16.40;99.90;;;;;;6071775;23;20022;-71
2023/07/16 03:54:31;;;;;;;7.53;4.38;;;16.40;99.90;;;;;;6096608;23;20029;-72
2023/07/16 03:56:57;;;;;;;11.07;4.80;;;16.40;99.90;;;;;;6096010;23;20014;-71
2023/07/16 03:59:23;;;;;;;11.23;4.72;;;16.40;99.90;;;;;;6094584;23;20015;-71
2023/07/16 04:01:48;;;;;;;12.35;4.90;;;16.40;99.90;;;;;;6072117;23;20026;-71
2023/07/16 04:04:14;;;;;;;9.38;5.00;;;16.40;99.90;;;;;;6046339;23;20025;-71
2023/07/16 04:06:40;;;;;;;9.18;4.93;;;16.30;99.90;;;;;;6072379;23;20460;-71
2023/07/16 04:09:05;;;;;;;12.38;5.32;;;16.30;99.90;;;;;;6071637;23;20037;-71
2023/07/16 04:11:31;;;;;;;8.43;5.07;;;16.30;99.90;;;;;;6095158;23;20022;-70
2023/07/16 04:13:57;;;;;;;8.07;4.95;;;16.30;99.90;;;;;;6095324;23;20030;-71
2023/07/16 04:16:22;;;;;;;9.23;4.45;;;16.30;99.90;;;;;;6094952;23;20045;-71
2023/07/16 04:18:48;;;;;;;12.55;4.88;;;16.30;99.90;;;;;;6096258;23;20022;-71
2023/07/16 04:21:13;;;;;;;8.65;5.07;;;16.30;99.90;;;;;;6047055;23;20049;-71
2023/07/16 04:23:39;;;;;;;12.93;4.70;;;16.30;99.90;;;;;;6096203;23;20451;-71
2023/07/16 04:26:05;;;;;;;11.35;4.75;;;16.30;99.90;;;;;;6070657;23;20072;-70
2023/07/16 04:28:30;;;;;;;12.48;5.18;;;16.30;99.90;;;;;;6023907;23;20026;-71
2023/07/16 04:30:56;;;;;;;9.68;4.97;;;16.30;99.90;;;;;;6095434;23;20029;-70
2023/07/16 04:33:22;;;;;;;13.07;4.90;;;16.30;99.90;;;;;;6094236;23;20021;-71
2023/07/16 04:35:48;;;;;;;8.95;4.55;;;16.30;99.90;;;;;;6097960;23;20022;-71
2023/07/16 04:38:13;;;;;;;10.18;4.93;;;16.40;99.90;;;;;;6071002;23;20028;-71
2023/07/16 04:40:41;;;;;;;8.57;5.10;;;16.40;99.90;;;;;;6095891;23;20033;-71
2023/07/16 04:43:07;;;;;;;9.18;4.55;;;16.40;99.90;;;;;;6094462;23;20021;-71
2023/07/16 04:45:32;;;;;;;10.45;5.13;;;16.40;99.90;;;;;;6097944;23;20018;-72
2023/07/16 04:47:59;;;;;;;10.27;4.63;;;16.40;99.90;;;;;;6072095;23;20023;-78
2023/07/16 04:50:24;;;;;;;11.32;4.90;;;16.40;99.90;;;;;;6095638;23;20430;-71
2023/07/16 04:52:50;;;;;;;9.25;4.80;;;16.50;99.90;;;;;;6071878;23;20311;-71
2023/07/16 04:55:16;;;;;;;9.68;4.72;;;16.50;99.90;;;;;;6070471;23;20015;-71
2023/07/16 04:57:42;;;;;;;10.43;5.18;;;16.50;99.90;;;;;;6072901;23;20030;-71
2023/07/16 05:00:08;;;;;;;12.75;5.28;;;16.50;99.90;;;;;;6070355;23;20025;-71
2023/07/16 05:02:33;;;;;;;9.00;4.57;;;16.50;99.90;;;;;;6096007;23;20022;-71
2023/07/16 05:04:59;;;;;;;11.73;4.97;;;16.50;99.90;;;;;;6094175;23;20030;-71
2023/07/16 05:07:25;;;;;;;9.55;4.88;;;16.60;99.90;;;;;;6071204;23;20468;-71
2023/07/16 05:09:50;;;;;;;13.38;5.10;;;16.60;99.90;;;;;;6071632;23;20163;-71
2023/07/16 05:12:16;;;;;;;7.75;4.85;;;16.60;99.90;;;;;;6094204;23;20014;-71
2023/07/16 05:14:47;;;;;;;12.07;4.90;;;16.70;99.90;;;;;;6071975;23;20070;-71
2023/07/16 05:17:14;;;;;;;6.88;4.18;;;16.70;99.90;;;;;;6046923;23;20026;-71
2023/07/16 05:19:40;;;;;;;11.45;4.55;;;16.80;99.90;;;;;;6095264;23;20101;-71
2023/07/16 05:22:06;;;;;;;9.65;4.75;;;16.80;99.90;;;;;;6094093;23;20110;-71
2023/07/16 05:24:32;;;;;;;9.50;4.47;;;16.80;99.90;;;;;;6070411;23;20078;-72
2023/07/16 05:26:58;;;;;;;10.52;5.10;;;16.80;99.90;;;;;;6048054;23;20022;-70
2023/07/16 05:29:24;;;;;;;8.13;4.38;;;16.90;99.90;;;;;;6093504;23;20105;-69
2023/07/16 05:31:49;;;;;;;8.52;4.38;;;16.90;99.90;;;;;;6095033;23;20022;-70
2023/07/16 05:34:15;;;;;;;8.48;4.43;;;16.90;99.90;;;;;;6068842;23;20050;-69
2023/07/16 05:36:44;;;;;;;9.48;4.25;;;17.00;99.90;;;;;;6094850;23;20018;-69
2023/07/16 05:39:12;;;;;;;9.52;4.65;;;16.90;99.90;;;;;;6096343;23;20061;-70
2023/07/16 05:41:39;;;;;;;9.48;4.68;;;17.00;99.90;;;;;;6094351;23;20029;-70
2023/07/16 05:44:05;;;;;;;10.63;4.15;;;17.00;99.90;;;;;;6096741;23;20105;-69
2023/07/16 05:46:31;;;;;;;10.73;4.90;;;17.10;99.90;;;;;;6046467;23;20023;-69
2023/07/16 05:48:57;;;;;;;7.43;4.30;;;17.20;99.90;;;;;;6096091;23;20037;-70
2023/07/16 05:51:22;;;;;;;8.80;4.50;;;17.20;99.90;;;;;;6069510;23;20023;-71
2023/07/16 05:53:49;;;;;;;9.07;4.50;;;17.40;99.90;;;;;;6095848;23;20445;-70
2023/07/16 05:56:14;;;;;;;10.90;4.60;;;17.40;99.90;;;;;;6096498;23;20026;-70
2023/07/16 05:58:41;;;;;;;9.50;4.72;;;17.40;99.90;;;;;;6071031;23;20030;-70
2023/07/16 06:01:06;;;;;;;10.77;4.93;;;17.50;99.90;;;;;;6095657;23;20033;-70
2023/07/16 06:03:32;;;;;;;8.63;4.07;;;17.60;99.90;;;;;;6094095;23;20022;-70
2023/07/16 06:05:58;;;;;;;9.20;4.40;;;17.70;99.90;;;;;;6071228;23;20097;-70
2023/07/16 06:08:24;;;;;;;7.97;4.53;;;17.70;99.90;;;;;;6046117;23;20081;-70
2023/07/16 06:10:51;;;;;;;9.63;4.47;;;17.80;99.90;;;;;;6071441;23;20030;-70
2023/07/16 06:13:16;;;;;;;9.18;4.97;;;17.80;99.90;;;;;;6095093;23;20077;-70
2023/07/16 06:15:43;;;;;;;10.52;5.05;;;17.90;99.90;;;;;;6070905;23;20050;-70
2023/07/16 06:18:09;;;;;;;9.32;4.93;;;18.00;99.90;;;;;;6071028;23;20338;-71
2023/07/16 06:20:35;;;;;;;8.73;4.63;;;18.00;99.90;;;;;;6093471;23;20077;-70
2023/07/16 06:23:01;;;;;;;12.25;4.80;;;18.20;99.90;;;;;;6071204;23;20023;-69
2023/07/16 06:25:26;;;;;;;8.70;4.40;;;18.10;99.90;;;;;;6093644;23;20025;-69
2023/07/16 06:27:52;;;;;;;9.65;4.93;;;18.20;99.90;;;;;;6070799;23;20086;-71
2023/07/16 06:30:18;;;;;;;7.38;5.05;;;18.30;99.90;;;;;;6070642;23;20033;-70
2023/07/16 06:32:43;;;;;;;10.15;4.85;;;18.30;99.90;;;;;;6070242;23;20026;-69
2023/07/16 06:35:09;;;;;;;9.10;5.15;;;18.40;99.90;;;;;;6098565;23;20018;-71
2023/07/16 06:37:35;;;;;;;9.40;4.95;;;18.40;99.90;;;;;;6095869;23;20030;-71
2023/07/16 06:40:00;;;;;;;8.85;5.05;;;18.50;99.90;;;;;;6073495;23;20047;-70
2023/07/16 06:42:26;;;;;;;7.10;5.28;;;18.50;99.90;;;;;;6047689;23;20029;-70
2023/07/16 06:44:52;;;;;;;9.13;4.85;;;18.60;99.90;;;;;;6097480;23;20033;-71
2023/07/16 06:47:17;;;;;;;11.98;5.13;;;18.60;99.90;;;;;;6072498;23;20033;-71
2023/07/16 06:49:43;;;;;;;8.55;5.10;;;18.60;99.90;;;;;;6049549;23;20022;-71
2023/07/16 06:52:21;;;;;;;10.45;5.50;;;18.70;99.90;;;;;;6072699;23;20023;-71
2023/07/16 06:54:47;;;;;;;9.80;4.65;;;18.60;99.90;;;;;;6095498;23;20091;-71
2023/07/16 06:57:13;;;;;;;9.68;5.03;;;18.50;99.90;;;;;;6072887;23;20019;-71
2023/07/16 06:59:39;;;;;;;8.10;5.00;;;18.50;99.90;;;;;;6095419;23;20086;-70
2023/07/16 07:02:06;;;;;;;9.98;5.45;;;18.40;99.90;;;;;;6097906;23;20055;-71
2023/07/16 07:04:31;;;;;;;8.60;5.30;;;18.50;99.90;;;;;;6095764;23;20425;-71
2023/07/16 07:06:57;;;;;;;13.88;5.32;;;18.60;99.90;;;;;;6095926;23;20475;-70
2023/07/16 07:09:23;;;;;;;11.45;5.20;;;18.70;99.90;;;;;;6098023;23;20449;-70
2023/07/16 07:11:49;;;;;;;12.10;5.43;;;18.80;99.90;;;;;;6047877;23;20093;-71
2023/07/16 07:14:14;;;;;;;15.68;5.32;;;18.80;99.90;;;;;;6049231;23;20038;-70
2023/07/16 07:16:40;;;;;;;9.90;5.00;;;18.80;99.90;;;;;;6093179;23;20338;-70
2023/07/16 07:19:06;;;;;;;11.52;5.55;;;18.80;99.90;;;;;;6094824;23;20089;-70
2023/07/16 07:21:31;;;;;;;10.73;5.43;;;18.90;99.90;;;;;;6093435;23;20053;-71
2023/07/16 07:23:57;;;;;;;11.80;5.07;;;19.00;99.90;;;;;;6071118;23;20046;-71
2023/07/16 07:26:23;;;;;;;8.10;5.40;;;19.10;99.90;;;;;;6071998;23;20026;-70
2023/07/16 07:28:48;;;;;;;9.68;4.93;;;19.20;99.90;;;;;;6095203;23;20030;-71
2023/07/16 07:31:14;;;;;;;7.88;4.97;;;19.30;99.90;;;;;;6094649;23;20022;-71
2023/07/16 07:33:40;;;;;;;9.13;5.15;;;19.40;99.90;;;;;;6093764;23;20026;-71
2023/07/16 07:36:06;;;;;;;12.30;5.88;;;19.40;99.90;;;;;;6047372;23;20019;-71
2023/07/16 07:38:31;;;;;;;10.07;4.72;;;19.40;99.90;;;;;;6093584;23;20018;-71
2023/07/16 07:40:57;;;;;;;8.48;4.97;;;19.40;99.90;;;;;;6095341;23;20063;-71
2023/07/16 07:43:23;;;;;;;10.50;5.53;;;19.30;99.90;;;;;;6069461;23;20026;-71
2023/07/16 07:45:48;;;;;;;8.55;4.72;;;19.40;99.90;;;;;;6096186;23;20018;-68
2023/07/16 07:48:14;;;;;;;8.30;5.35;;;19.50;99.90;;;;;;6071301;23;20030;-69
2023/07/16 07:50:40;;;;;;;12.35;4.53;;;19.40;99.90;;;;;;6095564;23;20049;-70
2023/07/16 07:53:06;;;;;;;8.25;5.53;;;19.50;99.90;;;;;;6095629;23;20018;-69
2023/07/16 07:55:32;;;;;;;9.73;5.28;;;19.50;99.90;;;;;;6093383;23;20022;-69
2023/07/16 07:57:58;;;;;;;11.30;5.25;;;19.50;99.90;;;;;;6071729;23;20025;-69
2023/07/16 08:00:24;;;;;;;11.02;5.53;;;19.50;99.90;;;;;;6092796;23;20428;-70
2023/07/16 08:02:50;;;;;;;13.38;5.55;;;19.50;99.90;;;;;;6094584;23;20022;-69
2023/07/16 08:05:15;;;;;;;7.72;5.10;;;19.60;99.90;;;;;;6095086;23;20373;-70
2023/07/16 08:07:41;;;;;;;8.73;4.97;;;19.70;99.90;;;;;;6095500;23;20377;-69
2023/07/16 08:10:07;;;;;;;12.63;5.07;;;19.80;99.90;;;;;;6095059;23;20022;-69
2023/07/16 08:12:32;;;;;;;7.90;4.80;;;19.90;99.90;;;;;;6093443;23;20046;-70
2023/07/16 08:14:58;;;;;;;8.65;4.72;;;19.80;99.90;;;;;;6095228;23;20027;-69
2023/07/16 08:17:24;;;;;;;8.25;4.85;;;19.80;99.90;;;;;;6092195;23;20061;-69
2023/07/16 08:19:50;;;;;;;8.98;4.95;;;19.80;99.90;;;;;;6094336;23;20069;-68
2023/07/16 08:22:16;;;;;;;8.20;4.90;;;19.70;99.90;;;;;;6070536;23;20341;-68
2023/07/16 08:24:41;;;;;;;10.07;4.90;;;19.70;99.90;;;;;;6069094;23;20056;-73
2023/07/16 08:27:07;;;;;;;12.32;5.05;;;19.80;99.90;;;;;;6096288;23;20074;-68
2023/07/16 08:29:35;;;;;;;8.65;5.10;;;19.80;99.90;;;;;;6093113;23;20038;-69
2023/07/16 08:32:01;;;;;;;10.73;5.13;;;19.80;99.90;;;;;;6096289;23;20018;-68
2023/07/16 08:34:27;;;;;;;7.72;4.68;;;19.70;99.90;;;;;;6095006;23;20049;-68
2023/07/16 08:36:53;;;;;;;8.18;4.70;;;19.60;99.90;;;;;;6070248;23;20484;-69
2023/07/16 08:39:20;;;;;;;7.65;4.97;;;19.60;99.90;;;;;;6045962;23;20034;-70
2023/07/16 08:41:46;;;;;;;8.40;5.22;;;19.60;99.90;;;;;;6093050;23;20034;-68
2023/07/16 08:44:12;;;;;;;13.40;5.63;;;19.60;99.90;;;;;;6096527;23;20030;-69
2023/07/16 08:46:39;;;;;;;10.75;5.43;;;19.60;99.90;;;;;;6070448;23;20050;-70
2023/07/16 08:49:07;;;;;;;8.23;5.18;;;19.70;99.90;;;;;;6071745;23;20132;-68
2023/07/16 08:51:34;;;;;;;9.98;5.30;;;19.80;99.90;;;;;;6069054;23;20026;-70
2023/07/16 08:54:00;;;;;;;7.95;5.03;;;19.80;99.90;;;;;;6096258;23;20027;-69
2023/07/16 08:56:27;;;;;;;10.95;5.43;;;19.80;99.90;;;;;;6095342;23;20022;-69
2023/07/16 08:58:58;;;;;;;9.70;5.07;;;20.00;99.90;;;;;;6095793;23;20112;-69
2023/07/16 09:01:24;;;;;;;9.10;4.93;;;20.00;99.90;;;;;;6096195;23;20023;-69
2023/07/16 09:03:50;;;;;;;9.85;5.55;;;19.90;99.90;;;;;;6069464;23;20541;-69
2023/07/16 09:06:16;;;;;;;10.02;5.13;;;19.90;99.90;;;;;;6096732;23;20065;-69
2023/07/16 09:08:41;;;;;;;13.27;5.40;;;19.80;99.90;;;;;;6093248;23;20026;-69
2023/07/16 09:11:13;;;;;;;11.05;5.55;;;20.00;99.90;;;;;;6097422;23;20480;-69
2023/07/16 09:13:44;;;;;;;9.93;5.43;;;20.20;99.90;;;;;;6095545;23;20083;-69
2023/07/16 09:16:09;;;;;;;8.77;5.10;;;20.30;99.90;;;;;;6096659;23;20019;-70
2023/07/16 09:18:35;;;;;;;9.07;5.10;;;20.30;99.90;;;;;;6097876;23;20028;-69
2023/07/16 09:21:05;;;;;;;10.77;5.43;;;20.40;99.90;;;;;;6093973;23;20043;-69
2023/07/16 09:23:32;;;;;;;10.63;5.05;;;20.60;99.90;;;;;;6096511;23;20026;-69
2023/07/16 09:25:58;;;;;;;9.60;5.60;;;20.70;99.90;;;;;;6096598;23;20046;-69
2023/07/16 09:28:24;;;;;;;8.50;4.93;;;20.80;99.90;;;;;;6095526;23;20027;-69
2023/07/16 09:30:53;;;;;;;7.40;5.28;;;20.70;99.90;;;;;;6070836;23;20026;-69
2023/07/16 09:33:21;;;;;;;10.10;5.13;;;20.60;99.90;;;;;;6096195;23;20026;-69
2023/07/16 09:35:50;;;;;;;11.65;6.07;;;20.50;99.90;;;;;;6094892;23;20372;-70
2023/07/16 09:38:17;;;;;;;12.00;5.10;;;20.30;99.90;;;;;;6092105;23;20026;-71
2023/07/16 09:40:43;;;;;;;9.13;5.28;;;20.30;99.90;;;;;;6092685;23;20023;-70
2023/07/16 09:43:10;;;;;;;9.73;5.18;;;20.30;99.90;;;;;;6092827;23;20026;-70
2023/07/16 09:45:36;;;;;;;9.38;5.60;;;20.30;99.90;;;;;;6067234;23;20084;-70
2023/07/16 09:48:03;;;;;;;9.88;5.57;;;20.10;99.90;;;;;;6094776;23;20029;-70
2023/07/16 09:50:32;;;;;;;10.60;5.60;;;20.10;99.90;;;;;;6095369;23;20854;-71
2023/07/16 09:52:58;;;;;;;8.98;5.40;;;20.10;99.90;;;;;;6094501;23;20022;-70
2023/07/16 09:55:24;;;;;;;10.80;5.60;;;20.00;99.90;;;;;;6096371;23;20037;-71
2023/07/16 09:57:53;;;;;;;10.82;5.90;;;19.90;99.90;;;;;;6097799;23;20033;-71
2023/07/16 10:00:21;;;;;;;9.93;5.18;;;19.90;99.90;;;;;;6071141;23;20025;-71
2023/07/16 10:02:47;;;;;;;8.43;5.43;;;19.80;99.90;;;;;;6096882;23;20022;-70
2023/07/16 10:05:27;;;;;;;10.35;5.78;;;19.80;99.90;;;;;;6071612;23;20058;-70
2023/07/16 10:07:59;;;;;;;7.85;5.20;;;19.90;99.90;;;;;;6071012;23;20491;-78
2023/07/16 10:10:42;;;;;;;10.48;5.75;;;20.00;99.90;;;;;;6100094;23;20022;-70
2023/07/16 10:13:11;;;;;;;9.52;5.68;;;20.00;99.90;;;;;;6073207;23;20056;-71
2023/07/16 10:15:39;;;;;;;8.43;5.55;;;20.00;99.90;;;;;;6097349;23;20018;-70
2023/07/16 10:18:05;;;;;;;10.60;5.63;;;20.40;99.90;;;;;;6097821;23;20037;-68
2023/07/16 10:20:33;;;;;;;10.32;5.88;;;20.50;99.90;;;;;;6097953;23;20018;-71
2023/07/16 10:23:12;;;;;;;10.68;5.60;;;20.70;99.90;;;;;;6098147;23;20022;-70
2023/07/16 10:25:37;;;;;;;8.75;5.07;;;20.80;99.90;;;;;;6096634;23;20380;-70
2023/07/16 10:28:03;;;;;;;8.05;5.10;;;20.70;99.90;;;;;;6097853;23;20046;-70
2023/07/16 10:30:30;;;;;;;10.10;5.55;;;20.80;99.90;;;;;;6095995;23;20079;-70
2023/07/16 10:32:55;;;;;;;10.45;5.43;;;21.00;99.90;;;;;;6096751;23;20022;-70
2023/07/16 10:35:21;;;;;;;9.27;5.40;;;21.00;99.90;;;;;;6049856;23;20042;-70
2023/07/16 10:37:47;;;;;;;9.95;5.35;;;21.00;99.90;;;;;;6096343;23;20077;-70
2023/07/16 10:40:14;;;;;;;7.65;5.38;;;20.90;99.90;;;;;;6100240;23;20019;-70
2023/07/16 10:42:43;;;;;;;10.48;5.50;;;20.80;99.90;;;;;;6097043;23;20037;-71
2023/07/16 10:45:10;;;;;;;10.18;5.32;;;20.80;99.90;;;;;;6098033;23;20027;-71
2023/07/16 10:47:37;;;;;;;9.75;5.65;;;20.60;99.90;;;;;;6098801;23;20022;-69
2023/07/16 10:50:08;;;;;;;8.07;5.00;;;20.50;99.90;;;;;;6072450;23;20018;-70
2023/07/16 10:52:35;;;;;;;10.80;5.57;;;20.30;99.90;;;;;;6097728;23;20046;-70
2023/07/16 10:55:01;;;;;;;10.13;5.72;;;20.20;99.90;;;;;;6095977;23;20037;-70
2023/07/16 10:57:27;;;;;;;7.72;5.45;;;20.10;99.90;;;;;;6098181;23;20018;-70
2023/07/16 10:59:56;;;;;;;13.23;5.70;;;20.00;99.90;;;;;;6097918;23;20048;-70
2023/07/16 11:02:23;;;;;;;10.45;5.40;;;20.10;99.90;;;;;;6097326;23;20062;-71
2023/07/16 11:04:50;;;;;;;9.27;6.05;;;20.40;99.90;;;;;;6096719;23;20105;-71
2023/07/16 11:07:16;;;;;;;12.55;5.85;;;20.50;99.90;;;;;;6098231;23;20050;-71
2023/07/16 11:09:48;;;;;;;9.13;5.97;;;20.60;99.90;;;;;;6099338;23;20022;-71
2023/07/16 11:12:16;;;;;;;11.50;5.97;;;20.80;99.90;;;;;;6094966;23;20026;-70
2023/07/16 11:14:45;;;;;;;9.48;5.45;;;20.80;99.90;;;;;;6100006;23;20065;-71
2023/07/16 11:17:11;;;;;;;8.30;5.55;;;20.90;99.90;;;;;;6098493;23;20480;-71
2023/07/16 11:19:37;;;;;;;8.45;5.03;;;21.00;99.90;;;;;;6097776;23;20030;-71
2023/07/16 11:22:05;;;;;;;9.85;5.00;;;21.00;99.90;;;;;;6073143;23;20030;-71
2023/07/16 11:25:00;;;;;;;10.00;5.88;;;20.80;99.90;;;;;;6073136;23;20387;-71
2023/07/16 11:27:31;;;;;;;7.22;4.85;;;20.70;99.90;;;;;;6037540;23;20074;-70
2023/07/16 11:29:58;;;;;;;;;;;20.60;99.90;;;;;;6097148;23;20025;-71
2023/07/16 11:32:29;;;;;;;8.60;4.85;;;20.50;99.90;;;;;;6099395;23;19957;-71
2023/07/16 11:34:56;;;;;;;7.50;4.75;;;20.50;99.90;;;;;;6097066;23;20078;-71
2023/07/16 11:37:24;;;;;;;7.50;4.80;;;20.60;99.90;;;;;;6096534;23;20040;-70
2023/07/16 11:39:50;;;;;;;9.25;4.93;;;20.50;99.90;;;;;;6097492;23;20026;-71
2023/07/16 11:42:23;;;;;;;8.73;5.03;;;20.40;99.90;;;;;;6071881;23;20061;-71
2023/07/16 11:44:50;;;;;;;7.45;5.15;;;20.40;99.90;;;;;;6097454;23;20026;-72
2023/07/16 11:47:15;;;;;;;8.32;5.40;;;20.30;99.90;;;;;;6072854;23;20049;-71
2023/07/16 11:49:41;;;;;;;9.25;5.10;;;20.30;99.90;;;;;;6073023;23;20014;-71
2023/07/16 11:52:07;;;;;;;11.07;5.78;;;20.30;99.90;;;;;;6072308;23;20380;-71
2023/07/16 11:54:33;;;;;;;8.95;5.28;;;20.20;99.90;;;;;;6095857;23;20018;-71
2023/07/16 11:56:59;;;;;;;9.35;5.28;;;20.20;99.90;;;;;;6074489;23;20032;-71
2023/07/16 11:59:24;;;;;;;9.55;5.43;;;20.20;99.90;;;;;;6073084;23;20486;-71
2023/07/16 12:01:50;;;;;;;8.73;5.45;;;20.20;99.90;;;;;;6074478;23;20023;-71
2023/07/16 12:04:17;;;;;;;9.30;5.53;;;20.20;99.90;;;;;;6072082;23;20026;-71
2023/07/16 12:06:43;;;;;;;9.10;5.95;;;20.10;99.90;;;;;;6072955;23;20041;-71
2023/07/16 12:09:09;;;;;;;10.43;5.82;;;20.10;99.90;;;;;;6098182;23;20037;-70
2023/07/16 12:11:36;;;;;;;8.48;5.65;;;20.10;99.90;;;;;;6096010;23;20416;-69
2023/07/16 12:14:02;;;;;;;9.10;5.30;;;20.10;99.90;;;;;;6096776;23;20018;-71
2023/07/16 12:16:27;;;;;;;7.05;5.20;;;20.30;99.90;;;;;;6095747;23;20014;-70
2023/07/16 12:18:53;;;;;;;6.93;5.22;;;20.40;99.90;;;;;;6073082;23;20018;-71
2023/07/16 12:21:19;;;;;;;11.20;5.30;;;20.70;99.90;;;;;;6047305;23;20086;-71
2023/07/16 12:23:45;;;;;;;7.88;5.15;;;20.90;99.90;;;;;;6072699;23;20030;-70
2023/07/16 12:26:11;;;;;;;10.70;5.22;;;21.10;99.90;;;;;;6097609;23;20069;-70
2023/07/16 12:28:37;;;;;;;6.15;4.75;;;21.10;99.90;;;;;;6095115;23;20389;-70
2023/07/16 12:31:02;;;;;;;6.03;4.70;;;21.00;99.90;;;;;;6072023;23;20098;-71
2023/07/16 12:33:28;;;;;;;8.15;4.88;;;20.90;99.90;;;;;;6070937;23;20022;-70
2023/07/16 12:35:54;;;;;;;7.75;5.18;;;20.80;99.90;;;;;;6077518;23;20026;-70
2023/07/16 12:38:20;;;;;;;9.13;4.93;;;20.70;99.90;;;;;;6100078;23;20972;-70
2023/07/16 12:40:46;;;;;;;8.65;4.95;;;20.60;99.90;;;;;;6101585;23;20029;-74